AirNav   Air Wisconsin Up To $57,000 Bonus
 
 348 users online  

77XS Garrett Ranch Airport
Danbury, Texas, USA

GOING TO DANBURY?


FAA INFORMATION EFFECTIVE 25 FEBRUARY 2021

Location

FAA Identifier: 77XS
Lat/Long: 29-17-30.6400N 095-21-33.4450W
29-17.510667N 095-21.557417W
29.2918444,-95.3592903
(estimated)
Elevation: 30 ft. / 9 m (estimated)
Variation: 06E (1985)
From city: 4 miles NW of DANBURY, TX
Time zone: UTC -6 (UTC -5 during Daylight Saving Time)
Zip code: 77534

Airport Operations

Airport use: Private use. Permission required prior to landing
Activation date: 04/1979
Control tower: no
ARTCC: HOUSTON CENTER
FSS: MONTGOMERY COUNTY FLIGHT SERVICE STATION
Attendance: IREG
Wind indicator: yes
Segmented circle: no
Beacon: white (unlighted land airport)
FOR ARPT BCN PHONE 409-922-8623.

Airport Communications

WX ASOS at LBX (12 nm SW): 119.925 (979-849-3319)
WX AWOS-3 at AXH (14 nm NW): 123.625 (281-431-6572)
WX ASOS at LVJ (15 nm NE): 118.525 (281-992-1853)

Nearby radio navigation aids

VOR radial/distance  VOR name  Freq  Var
VUHr267/25.8SCHOLES VOR/DME113.0006E
MHFr237/35.4TRINITY VOR/DME113.6007E
IAHr176/39.9HUMBLE VORTAC116.6005E

Airport Services

Fuel available: A

Runway Information

Runway 6/24

Dimensions: 3000 x 20 ft. / 914 x 6 m
RWY 06/24 2600 FT ASPH ON W END, 400 FT TURF ON E END.
Surface: asphalt/turf
RUNWAY 6  RUNWAY 24
Latitude: 29-17.394333N29-17.627000N
Longitude: 095-21.806667W095-21.308167W
Elevation: 29.0 ft.29.0 ft.
Traffic pattern: leftleft
Runway heading: 056 magnetic, 062 true236 magnetic, 242 true
Obstructions: none150 ft. ant, 2160 ft. from runway

Airport Ownership and Management from official FAA records

Ownership: Privately-owned
Owner: GARRETT FLYING SVC INC.
ROUTE 2, BOX 98J
ANGLETON, TX 77515
Phone 979-922-1234
Manager: BOB GARRETT
ROUTE 2, BOX 98J
ANGLETON, TX 77515
Phone 979-922-8623

Airport Operational Statistics

Aircraft based on the field: 4
Single engine airplanes: 3
Multi engine airplanes: 1
    

Additional Remarks

FOR CD CTC HOUSTON ARTCC AT 281-230-5622.

Instrument Procedures

There are no published instrument procedures at 77XS.

Some nearby airports with instrument procedures:

KLBX - Texas Gulf Coast Regional Airport (12 nm SW)
KAXH - Houston Southwest Airport (14 nm NW)
KLVJ - Pearland Regional Airport (15 nm NE)
KHOU - William P Hobby Airport (22 nm N)
KEFD - Ellington Airport (22 nm NE)
 
Loc | Ops | Rwys | IFR | FBO | Links
Com | Nav | Svcs | Stats | Notes
Area around 77XS (Garrett Ranch Airport)
 
Road maps at: MapQuest Bing Google
 
Aerial photo
No photo
 
Sectional chart

 
Airport distance calculator
Flying to Garrett Ranch Airport? Find the distance to fly.

From to 77XS

Sunrise and sunset
Times for 09-Mar-2021
 Local
(UTC-6)
 Zulu
(UTC)
Morning civil twilight06:1512:15
Sunrise06:3912:39
Sunset18:2500:25
Evening civil twilight18:4900:49

Current date and time
Zulu (UTC)  09-Mar-2021 08:31:39
Local (UTC-6)  09-Mar-2021 02:31:39
 
METAR
KLBX 
12nm SW 
090823Z AUTO 12006KT 10SM BKN029 17/14 A3032 RMK AO2 T01670144
KAXH 
14nm NW 
090815Z AUTO 13003KT 10SM BKN050 15/14 A3034 RMK AO2 T01500143
KLVJ 
15nm NE 
090753Z AUTO 13006KT 10SM OVC055 16/14 A3035 RMK AO2 SLP276 T01610139
KHOU 
21nm N 
090753Z 13008KT 10SM OVC050 17/14 A3033 RMK AO2 SLP276 BINOVC T01670139
KEFD 
21nm NE 
090650Z 11003KT 8SM FEW037 13/13 A3035
TAF
KLBX 
12nm SW 
090538Z 0906/1006 08004KT P6SM BKN050 FM091600 15010G20KT P6SM SCT050 SCT120 FM100300 16007KT P6SM SCT020 BKN250
NOTAMs
Click for the latest NOTAMs
NOTAMs are issued by the DoD/FAA and will open in a separate window not controlled by AirNav.

 

 
 

Would you like to see your business listed on this page?

 If your business provides an interesting product or service to pilots, flight crews, aircraft, or users of the Garrett Ranch Airport, you should consider listing it here.  To start the listing process, click on the button below
 
Add a business
 

Other Pages about Garrett Ranch Airport

Update a link
 
Copyright © AirNav, LLC. All rights reserved. Privacy Policy  Contact